sensor_id;sensor_type;location;lat;lon;timestamp;temperature;humidity
22674;DHT22;11504;43.334;21.918;2022-08-03T00:00:39;22.5;100.0
22674;DHT22;11504;43.334;21.918;2022-08-03T00:05:15;22.5;100.0
22674;DHT22;11504;43.334;21.918;2022-08-03T00:09:51;22.3;100.0
22674;DHT22;11504;43.334;21.918;2022-08-03T00:14:28;22.3;100.0
22674;DHT22;11504;43.334;21.918;2022-08-03T00:19:04;22.3;100.0
22674;DHT22;11504;43.334;21.918;2022-08-03T00:23:40;22.1;100.0
22674;DHT22;11504;43.334;21.918;2022-08-03T00:28:16;22.1;100.0
22674;DHT22;11504;43.334;21.918;2022-08-03T00:32:52;22.0;100.0
22674;DHT22;11504;43.334;21.918;2022-08-03T00:37:28;22.0;100.0
22674;DHT22;11504;43.334;21.918;2022-08-03T00:42:06;21.8;100.0
22674;DHT22;11504;43.334;21.918;2022-08-03T00:46:42;21.8;100.0
22674;DHT22;11504;43.334;21.918;2022-08-03T00:51:21;21.6;100.0
22674;DHT22;11504;43.334;21.918;2022-08-03T00:55:59;21.6;100.0
22674;DHT22;11504;43.334;21.918;2022-08-03T01:00:39;21.5;100.0
22674;DHT22;11504;43.334;21.918;2022-08-03T01:05:16;21.5;100.0
22674;DHT22;11504;43.334;21.918;2022-08-03T01:10:08;21.5;100.0
22674;DHT22;11504;43.334;21.918;2022-08-03T01:15:01;21.5;100.0
22674;DHT22;11504;43.334;21.918;2022-08-03T01:30:06;21.2;100.0
22674;DHT22;11504;43.334;21.918;2022-08-03T01:35:01;21.2;100.0
22674;DHT22;11504;43.334;21.918;2022-08-03T01:39:45;21.2;100.0
22674;DHT22;11504;43.334;21.918;2022-08-03T01:44:39;21.2;100.0
22674;DHT22;11504;43.334;21.918;2022-08-03T01:49:26;21.0;100.0
22674;DHT22;11504;43.334;21.918;2022-08-03T01:54:16;21.0;100.0
22674;DHT22;11504;43.334;21.918;2022-08-03T01:59:04;21.0;100.0
22674;DHT22;11504;43.334;21.918;2022-08-03T02:03:51;20.7;100.0
22674;DHT22;11504;43.334;21.918;2022-08-03T02:08:41;20.7;100.0
22674;DHT22;11504;43.334;21.918;2022-08-03T02:13:33;20.6;100.0
22674;DHT22;11504;43.334;21.918;2022-08-03T02:18:17;20.6;100.0
22674;DHT22;11504;43.334;21.918;2022-08-03T02:22:58;20.6;100.0
22674;DHT22;11504;43.334;21.918;2022-08-03T02:27:50;20.6;100.0
22674;DHT22;11504;43.334;21.918;2022-08-03T02:32:58;20.5;100.0
22674;DHT22;11504;43.334;21.918;2022-08-03T02:37:52;20.5;100.0
22674;DHT22;11504;43.334;21.918;2022-08-03T02:42:49;20.4;100.0
22674;DHT22;11504;43.334;21.918;2022-08-03T02:47:40;20.4;100.0
22674;DHT22;11504;43.334;21.918;2022-08-03T02:52:29;20.4;100.0
22674;DHT22;11504;43.334;21.918;2022-08-03T02:57:15;20.4;100.0
22674;DHT22;11504;43.334;21.918;2022-08-03T03:01:55;20.3;100.0
22674;DHT22;11504;43.334;21.918;2022-08-03T03:06:38;20.3;100.0
22674;DHT22;11504;43.334;21.918;2022-08-03T03:11:21;20.2;100.0
22674;DHT22;11504;43.334;21.918;2022-08-03T03:16:05;20.2;100.0
22674;DHT22;11504;43.334;21.918;2022-08-03T03:20:42;20.0;100.0
22674;DHT22;11504;43.334;21.918;2022-08-03T03:25:24;20.0;100.0
22674;DHT22;11504;43.334;21.918;2022-08-03T03:30:03;20.0;100.0
22674;DHT22;11504;43.334;21.918;2022-08-03T03:34:42;20.0;100.0
22674;DHT22;11504;43.334;21.918;2022-08-03T03:39:20;19.9;100.0
22674;DHT22;11504;43.334;21.918;2022-08-03T03:43:57;19.9;100.0
22674;DHT22;11504;43.334;21.918;2022-08-03T03:48:34;19.9;100.0
22674;DHT22;11504;43.334;21.918;2022-08-03T03:53:14;19.9;100.0
22674;DHT22;11504;43.334;21.918;2022-08-03T03:57:50;19.9;100.0
22674;DHT22;11504;43.334;21.918;2022-08-03T04:02:27;19.9;100.0
22674;DHT22;11504;43.334;21.918;2022-08-03T04:07:03;19.9;100.0
22674;DHT22;11504;43.334;21.918;2022-08-03T04:11:51;19.9;100.0
22674;DHT22;11504;43.334;21.918;2022-08-03T04:16:42;19.9;100.0
22674;DHT22;11504;43.334;21.918;2022-08-03T04:31:06;23.6;100.0
22674;DHT22;11504;43.334;21.918;2022-08-03T04:35:58;23.6;100.0
22674;DHT22;11504;43.334;21.918;2022-08-03T04:40:47;23.6;100.0
22674;DHT22;11504;43.334;21.918;2022-08-03T04:45:34;23.6;100.0
22674;DHT22;11504;43.334;21.918;2022-08-03T04:50:16;28.2;100.0
22674;DHT22;11504;43.334;21.918;2022-08-03T04:54:54;28.2;100.0
22674;DHT22;11504;43.334;21.918;2022-08-03T04:59:31;32.8;100.0
22674;DHT22;11504;43.334;21.918;2022-08-03T05:04:08;32.8;100.0
22674;DHT22;11504;43.334;21.918;2022-08-03T05:08:45;32.8;100.0
22674;DHT22;11504;43.334;21.918;2022-08-03T05:13:22;34.8;100.0
22674;DHT22;11504;43.334;21.918;2022-08-03T05:17:59;34.8;100.0
22674;DHT22;11504;43.334;21.918;2022-08-03T05:22:35;36.9;100.0
22674;DHT22;11504;43.334;21.918;2022-08-03T05:27:12;36.9;100.0
22674;DHT22;11504;43.334;21.918;2022-08-03T05:31:49;38.2;100.0
22674;DHT22;11504;43.334;21.918;2022-08-03T05:36:25;38.2;100.0
22674;DHT22;11504;43.334;21.918;2022-08-03T05:41:03;39.4;100.0
22674;DHT22;11504;43.334;21.918;2022-08-03T05:45:40;39.4;100.0
22674;DHT22;11504;43.334;21.918;2022-08-03T05:50:19;40.0;100.0
22674;DHT22;11504;43.334;21.918;2022-08-03T05:54:56;40.0;100.0
22674;DHT22;11504;43.334;21.918;2022-08-03T05:59:32;40.7;100.0
22674;DHT22;11504;43.334;21.918;2022-08-03T06:04:08;40.7;100.0
22674;DHT22;11504;43.334;21.918;2022-08-03T06:08:46;40.7;100.0
22674;DHT22;11504;43.334;21.918;2022-08-03T06:13:22;40.7;100.0
22674;DHT22;11504;43.334;21.918;2022-08-03T06:17:59;40.7;100.0
22674;DHT22;11504;43.334;21.918;2022-08-03T06:31:48;40.1;100.0
22674;DHT22;11504;43.334;21.918;2022-08-03T06:36:24;40.1;100.0
22674;DHT22;11504;43.334;21.918;2022-08-03T06:41:00;40.1;100.0
22674;DHT22;11504;43.334;21.918;2022-08-03T06:45:36;40.1;100.0
22674;DHT22;11504;43.334;21.918;2022-08-03T06:50:13;38.9;100.0
22674;DHT22;11504;43.334;21.918;2022-08-03T06:54:49;38.9;100.0
22674;DHT22;11504;43.334;21.918;2022-08-03T06:59:26;38.9;100.0
22674;DHT22;11504;43.334;21.918;2022-08-03T07:04:02;37.7;100.0
22674;DHT22;11504;43.334;21.918;2022-08-03T07:08:39;37.7;100.0
22674;DHT22;11504;43.334;21.918;2022-08-03T07:13:15;37.2;100.0
22674;DHT22;11504;43.334;21.918;2022-08-03T07:17:51;37.2;100.0
22674;DHT22;11504;43.334;21.918;2022-08-03T07:22:29;36.6;100.0
22674;DHT22;11504;43.334;21.918;2022-08-03T07:27:05;36.6;100.0
22674;DHT22;11504;43.334;21.918;2022-08-03T07:31:43;36.6;100.0
22674;DHT22;11504;43.334;21.918;2022-08-03T07:36:19;36.6;100.0
22674;DHT22;11504;43.334;21.918;2022-08-03T07:50:10;37.0;100.0
22674;DHT22;11504;43.334;21.918;2022-08-03T07:54:47;37.0;100.0
22674;DHT22;11504;43.334;21.918;2022-08-03T07:59:23;37.0;100.0
22674;DHT22;11504;43.334;21.918;2022-08-03T08:03:59;37.0;100.0
22674;DHT22;11504;43.334;21.918;2022-08-03T08:08:39;37.0;100.0
22674;DHT22;11504;43.334;21.918;2022-08-03T08:13:15;37.2;100.0
22674;DHT22;11504;43.334;21.918;2022-08-03T08:17:58;37.2;100.0
22674;DHT22;11504;43.334;21.918;2022-08-03T08:22:34;37.3;100.0
22674;DHT22;11504;43.334;21.918;2022-08-03T08:27:10;37.3;100.0
22674;DHT22;11504;43.334;21.918;2022-08-03T08:31:46;37.3;100.0
22674;DHT22;11504;43.334;21.918;2022-08-03T08:36:23;37.3;100.0
22674;DHT22;11504;43.334;21.918;2022-08-03T08:41:00;37.4;100.0
22674;DHT22;11504;43.334;21.918;2022-08-03T08:45:37;37.4;100.0
22674;DHT22;11504;43.334;21.918;2022-08-03T08:50:21;37.4;100.0
22674;DHT22;11504;43.334;21.918;2022-08-03T08:55:05;37.4;100.0
22674;DHT22;11504;43.334;21.918;2022-08-03T09:13:35;37.0;100.0
22674;DHT22;11504;43.334;21.918;2022-08-03T09:18:12;37.0;100.0
22674;DHT22;11504;43.334;21.918;2022-08-03T09:23:02;37.0;100.0
22674;DHT22;11504;43.334;21.918;2022-08-03T09:27:45;37.0;100.0
22674;DHT22;11504;43.334;21.918;2022-08-03T09:32:24;37.0;100.0
22674;DHT22;11504;43.334;21.918;2022-08-03T09:37:00;37.0;100.0
22674;DHT22;11504;43.334;21.918;2022-08-03T09:51:04;35.8;100.0
22674;DHT22;11504;43.334;21.918;2022-08-03T09:55:57;35.8;100.0
22674;DHT22;11504;43.334;21.918;2022-08-03T10:01:00;35.8;100.0
22674;DHT22;11504;43.334;21.918;2022-08-03T10:05:37;35.8;100.0
22674;DHT22;11504;43.334;21.918;2022-08-03T10:10:17;35.7;100.0
22674;DHT22;11504;43.334;21.918;2022-08-03T10:14:55;35.7;100.0
22674;DHT22;11504;43.334;21.918;2022-08-03T10:19:33;35.7;100.0
22674;DHT22;11504;43.334;21.918;2022-08-03T10:24:24;35.6;100.0
22674;DHT22;11504;43.334;21.918;2022-08-03T10:29:20;35.6;100.0
22674;DHT22;11504;43.334;21.918;2022-08-03T10:34:11;35.4;100.0
22674;DHT22;11504;43.334;21.918;2022-08-03T10:39:00;35.4;100.0
22674;DHT22;11504;43.334;21.918;2022-08-03T10:43:58;35.1;100.0
22674;DHT22;11504;43.334;21.918;2022-08-03T10:48:45;35.1;100.0
22674;DHT22;11504;43.334;21.918;2022-08-03T10:53:38;35.0;100.0
22674;DHT22;11504;43.334;21.918;2022-08-03T10:58:52;35.0;100.0
22674;DHT22;11504;43.334;21.918;2022-08-03T11:03:30;34.9;100.0
22674;DHT22;11504;43.334;21.918;2022-08-03T11:08:33;34.9;100.0
22674;DHT22;11504;43.334;21.918;2022-08-03T11:13:19;34.9;100.0
22674;DHT22;11504;43.334;21.918;2022-08-03T11:18:13;34.9;100.0
22674;DHT22;11504;43.334;21.918;2022-08-03T11:32:09;33.5;100.0
22674;DHT22;11504;43.334;21.918;2022-08-03T11:39:15;33.5;100.0
22674;DHT22;11504;43.334;21.918;2022-08-03T11:43:51;33.5;100.0
22674;DHT22;11504;43.334;21.918;2022-08-03T11:48:40;33.5;100.0
22674;DHT22;11504;43.334;21.918;2022-08-03T11:53:20;33.5;100.0
22674;DHT22;11504;43.334;21.918;2022-08-03T11:57:58;33.5;100.0
22674;DHT22;11504;43.334;21.918;2022-08-03T12:02:35;33.5;100.0
22674;DHT22;11504;43.334;21.918;2022-08-03T12:07:10;33.5;100.0
22674;DHT22;11504;43.334;21.918;2022-08-03T12:11:48;33.1;100.0
22674;DHT22;11504;43.334;21.918;2022-08-03T12:16:25;33.1;100.0
22674;DHT22;11504;43.334;21.918;2022-08-03T12:21:07;32.7;100.0
22674;DHT22;11504;43.334;21.918;2022-08-03T12:25:47;32.7;100.0
22674;DHT22;11504;43.334;21.918;2022-08-03T12:30:24;32.9;100.0
22674;DHT22;11504;43.334;21.918;2022-08-03T12:35:00;32.9;100.0
22674;DHT22;11504;43.334;21.918;2022-08-03T12:39:37;32.9;100.0
22674;DHT22;11504;43.334;21.918;2022-08-03T12:44:14;33.1;100.0
22674;DHT22;11504;43.334;21.918;2022-08-03T12:49:13;33.1;100.0
22674;DHT22;11504;43.334;21.918;2022-08-03T12:53:52;33.4;100.0
22674;DHT22;11504;43.334;21.918;2022-08-03T12:58:35;33.4;100.0
22674;DHT22;11504;43.334;21.918;2022-08-03T13:03:11;33.6;100.0
22674;DHT22;11504;43.334;21.918;2022-08-03T13:07:48;33.6;100.0
22674;DHT22;11504;43.334;21.918;2022-08-03T13:12:27;33.4;100.0
22674;DHT22;11504;43.334;21.918;2022-08-03T13:17:06;33.4;100.0
22674;DHT22;11504;43.334;21.918;2022-08-03T13:21:46;33.3;100.0
22674;DHT22;11504;43.334;21.918;2022-08-03T13:26:23;33.3;100.0
22674;DHT22;11504;43.334;21.918;2022-08-03T13:31:00;33.4;100.0
22674;DHT22;11504;43.334;21.918;2022-08-03T13:35:37;33.4;100.0
22674;DHT22;11504;43.334;21.918;2022-08-03T13:40:14;33.6;100.0
22674;DHT22;11504;43.334;21.918;2022-08-03T13:44:51;33.6;100.0
22674;DHT22;11504;43.334;21.918;2022-08-03T13:49:28;33.6;100.0
22674;DHT22;11504;43.334;21.918;2022-08-03T13:54:05;33.4;100.0
22674;DHT22;11504;43.334;21.918;2022-08-03T13:58:43;33.4;100.0
22674;DHT22;11504;43.334;21.918;2022-08-03T14:03:20;33.3;100.0
22674;DHT22;11504;43.334;21.918;2022-08-03T14:07:56;33.3;100.0
22674;DHT22;11504;43.334;21.918;2022-08-03T14:12:34;33.1;100.0
22674;DHT22;11504;43.334;21.918;2022-08-03T14:17:11;33.1;100.0
22674;DHT22;11504;43.334;21.918;2022-08-03T14:21:48;32.9;100.0
22674;DHT22;11504;43.334;21.918;2022-08-03T14:26:24;32.9;100.0
22674;DHT22;11504;43.334;21.918;2022-08-03T14:31:03;32.8;100.0
22674;DHT22;11504;43.334;21.918;2022-08-03T14:35:40;32.8;100.0
22674;DHT22;11504;43.334;21.918;2022-08-03T14:40:17;32.6;100.0
22674;DHT22;11504;43.334;21.918;2022-08-03T14:44:55;32.6;100.0
22674;DHT22;11504;43.334;21.918;2022-08-03T14:49:32;32.6;100.0
22674;DHT22;11504;43.334;21.918;2022-08-03T14:54:08;32.6;100.0
22674;DHT22;11504;43.334;21.918;2022-08-03T14:58:45;32.6;100.0
22674;DHT22;11504;43.334;21.918;2022-08-03T15:03:24;32.6;100.0
22674;DHT22;11504;43.334;21.918;2022-08-03T15:08:00;32.6;100.0
22674;DHT22;11504;43.334;21.918;2022-08-03T15:12:37;32.6;100.0
22674;DHT22;11504;43.334;21.918;2022-08-03T15:17:13;32.6;100.0
22674;DHT22;11504;43.334;21.918;2022-08-03T15:21:50;32.5;100.0
22674;DHT22;11504;43.334;21.918;2022-08-03T15:26:27;32.5;100.0
22674;DHT22;11504;43.334;21.918;2022-08-03T15:31:04;32.4;100.0
22674;DHT22;11504;43.334;21.918;2022-08-03T15:35:41;32.4;100.0
22674;DHT22;11504;43.334;21.918;2022-08-03T15:40:18;32.4;100.0
22674;DHT22;11504;43.334;21.918;2022-08-03T15:44:56;32.4;100.0
22674;DHT22;11504;43.334;21.918;2022-08-03T15:49:33;32.4;100.0
22674;DHT22;11504;43.334;21.918;2022-08-03T15:54:11;32.3;100.0
22674;DHT22;11504;43.334;21.918;2022-08-03T15:58:48;32.3;100.0
22674;DHT22;11504;43.334;21.918;2022-08-03T16:03:26;32.2;100.0
22674;DHT22;11504;43.334;21.918;2022-08-03T16:08:04;32.2;100.0
22674;DHT22;11504;43.334;21.918;2022-08-03T16:12:43;32.2;100.0
22674;DHT22;11504;43.334;21.918;2022-08-03T16:17:22;32.2;100.0
22674;DHT22;11504;43.334;21.918;2022-08-03T16:22:00;32.2;100.0
22674;DHT22;11504;43.334;21.918;2022-08-03T16:26:37;32.2;100.0
22674;DHT22;11504;43.334;21.918;2022-08-03T16:31:13;32.0;100.0
22674;DHT22;11504;43.334;21.918;2022-08-03T16:35:50;32.0;100.0
22674;DHT22;11504;43.334;21.918;2022-08-03T16:40:27;31.9;100.0
22674;DHT22;11504;43.334;21.918;2022-08-03T16:45:08;31.9;100.0
22674;DHT22;11504;43.334;21.918;2022-08-03T16:49:46;31.9;100.0
22674;DHT22;11504;43.334;21.918;2022-08-03T16:54:23;31.7;100.0
22674;DHT22;11504;43.334;21.918;2022-08-03T16:59:03;31.7;100.0
22674;DHT22;11504;43.334;21.918;2022-08-03T17:03:39;31.5;100.0
22674;DHT22;11504;43.334;21.918;2022-08-03T17:08:17;31.5;100.0
22674;DHT22;11504;43.334;21.918;2022-08-03T17:12:54;31.2;100.0
22674;DHT22;11504;43.334;21.918;2022-08-03T17:17:34;31.2;100.0
22674;DHT22;11504;43.334;21.918;2022-08-03T17:22:31;31.0;100.0
22674;DHT22;11504;43.334;21.918;2022-08-03T17:27:37;31.0;100.0
22674;DHT22;11504;43.334;21.918;2022-08-03T17:32:25;30.8;100.0
22674;DHT22;11504;43.334;21.918;2022-08-03T17:37:12;30.8;100.0
22674;DHT22;11504;43.334;21.918;2022-08-03T17:41:51;30.6;100.0
22674;DHT22;11504;43.334;21.918;2022-08-03T17:46:28;30.6;100.0
22674;DHT22;11504;43.334;21.918;2022-08-03T17:51:15;30.4;100.0
22674;DHT22;11504;43.334;21.918;2022-08-03T17:56:38;30.4;100.0
22674;DHT22;11504;43.334;21.918;2022-08-03T18:01:55;30.1;100.0
22674;DHT22;11504;43.334;21.918;2022-08-03T18:07:28;30.1;100.0
22674;DHT22;11504;43.334;21.918;2022-08-03T18:12:28;29.8;100.0
22674;DHT22;11504;43.334;21.918;2022-08-03T18:17:41;29.8;100.0
22674;DHT22;11504;43.334;21.918;2022-08-03T18:22:39;29.6;100.0
22674;DHT22;11504;43.334;21.918;2022-08-03T18:27:20;29.6;100.0
22674;DHT22;11504;43.334;21.918;2022-08-03T18:32:00;29.4;100.0
22674;DHT22;11504;43.334;21.918;2022-08-03T18:36:46;29.4;100.0
22674;DHT22;11504;43.334;21.918;2022-08-03T18:41:24;29.2;100.0
22674;DHT22;11504;43.334;21.918;2022-08-03T18:46:06;29.2;100.0
22674;DHT22;11504;43.334;21.918;2022-08-03T18:51:38;29.1;100.0
22674;DHT22;11504;43.334;21.918;2022-08-03T18:56:32;29.1;100.0
22674;DHT22;11504;43.334;21.918;2022-08-03T19:01:38;29.0;100.0
22674;DHT22;11504;43.334;21.918;2022-08-03T19:06:30;29.0;100.0
22674;DHT22;11504;43.334;21.918;2022-08-03T19:11:28;28.7;100.0
22674;DHT22;11504;43.334;21.918;2022-08-03T19:16:26;28.7;100.0
22674;DHT22;11504;43.334;21.918;2022-08-03T19:21:14;28.4;100.0
22674;DHT22;11504;43.334;21.918;2022-08-03T19:25:52;28.4;100.0
22674;DHT22;11504;43.334;21.918;2022-08-03T19:30:33;28.2;100.0
22674;DHT22;11504;43.334;21.918;2022-08-03T19:35:15;28.2;100.0
22674;DHT22;11504;43.334;21.918;2022-08-03T19:39:53;28.2;100.0
22674;DHT22;11504;43.334;21.918;2022-08-03T19:44:32;27.9;100.0
22674;DHT22;11504;43.334;21.918;2022-08-03T19:49:25;27.9;100.0
22674;DHT22;11504;43.334;21.918;2022-08-03T19:54:16;27.8;100.0
22674;DHT22;11504;43.334;21.918;2022-08-03T19:58:58;27.8;100.0
22674;DHT22;11504;43.334;21.918;2022-08-03T20:03:37;27.6;100.0
22674;DHT22;11504;43.334;21.918;2022-08-03T20:08:18;27.6;100.0
22674;DHT22;11504;43.334;21.918;2022-08-03T20:12:58;27.4;100.0
22674;DHT22;11504;43.334;21.918;2022-08-03T20:17:37;27.4;100.0
22674;DHT22;11504;43.334;21.918;2022-08-03T20:22:15;27.3;100.0
22674;DHT22;11504;43.334;21.918;2022-08-03T20:27:03;27.3;100.0
22674;DHT22;11504;43.334;21.918;2022-08-03T20:31:54;27.2;100.0
22674;DHT22;11504;43.334;21.918;2022-08-03T20:36:32;27.2;100.0
22674;DHT22;11504;43.334;21.918;2022-08-03T20:41:10;27.0;100.0
22674;DHT22;11504;43.334;21.918;2022-08-03T20:45:48;27.0;100.0
22674;DHT22;11504;43.334;21.918;2022-08-03T20:50:27;26.8;100.0
22674;DHT22;11504;43.334;21.918;2022-08-03T20:55:07;26.8;100.0
22674;DHT22;11504;43.334;21.918;2022-08-03T20:59:45;26.8;100.0
22674;DHT22;11504;43.334;21.918;2022-08-03T21:04:24;26.5;100.0
22674;DHT22;11504;43.334;21.918;2022-08-03T21:09:04;26.5;100.0
22674;DHT22;11504;43.334;21.918;2022-08-03T21:13:54;26.3;100.0
22674;DHT22;11504;43.334;21.918;2022-08-03T21:18:58;26.3;100.0
22674;DHT22;11504;43.334;21.918;2022-08-03T21:23:43;26.1;100.0
22674;DHT22;11504;43.334;21.918;2022-08-03T21:28:31;26.1;100.0
22674;DHT22;11504;43.334;21.918;2022-08-03T21:33:14;25.8;100.0
22674;DHT22;11504;43.334;21.918;2022-08-03T21:37:53;25.8;100.0
22674;DHT22;11504;43.334;21.918;2022-08-03T21:42:30;25.6;100.0
22674;DHT22;11504;43.334;21.918;2022-08-03T21:47:10;25.6;100.0
22674;DHT22;11504;43.334;21.918;2022-08-03T21:51:52;25.5;100.0
22674;DHT22;11504;43.334;21.918;2022-08-03T21:56:41;25.5;100.0
22674;DHT22;11504;43.334;21.918;2022-08-03T22:01:32;25.3;100.0
22674;DHT22;11504;43.334;21.918;2022-08-03T22:06:17;25.3;100.0
22674;DHT22;11504;43.334;21.918;2022-08-03T22:10:55;25.1;100.0
22674;DHT22;11504;43.334;21.918;2022-08-03T22:15:32;25.1;100.0
22674;DHT22;11504;43.334;21.918;2022-08-03T22:20:12;25.1;100.0
22674;DHT22;11504;43.334;21.918;2022-08-03T22:24:57;24.9;100.0
22674;DHT22;11504;43.334;21.918;2022-08-03T22:29:45;24.9;100.0
22674;DHT22;11504;43.334;21.918;2022-08-03T22:34:27;24.8;100.0
22674;DHT22;11504;43.334;21.918;2022-08-03T22:39:05;24.8;100.0
22674;DHT22;11504;43.334;21.918;2022-08-03T22:43:42;24.6;100.0
22674;DHT22;11504;43.334;21.918;2022-08-03T22:48:20;24.6;100.0
22674;DHT22;11504;43.334;21.918;2022-08-03T22:53:00;24.6;100.0
22674;DHT22;11504;43.334;21.918;2022-08-03T22:57:38;24.6;100.0
22674;DHT22;11504;43.334;21.918;2022-08-03T23:02:18;24.6;100.0
22674;DHT22;11504;43.334;21.918;2022-08-03T23:07:02;24.6;100.0
22674;DHT22;11504;43.334;21.918;2022-08-03T23:11:47;24.5;100.0
22674;DHT22;11504;43.334;21.918;2022-08-03T23:16:31;24.5;100.0
22674;DHT22;11504;43.334;21.918;2022-08-03T23:21:20;24.3;100.0
22674;DHT22;11504;43.334;21.918;2022-08-03T23:26:02;24.3;100.0
22674;DHT22;11504;43.334;21.918;2022-08-03T23:30:43;24.1;100.0
22674;DHT22;11504;43.334;21.918;2022-08-03T23:35:24;24.1;100.0
22674;DHT22;11504;43.334;21.918;2022-08-03T23:40:04;24.1;100.0
22674;DHT22;11504;43.334;21.918;2022-08-03T23:44:54;23.9;100.0
22674;DHT22;11504;43.334;21.918;2022-08-03T23:49:41;23.9;100.0
22674;DHT22;11504;43.334;21.918;2022-08-03T23:54:39;23.8;100.0
